sensor_id;sensor_type;location;lat;lon;timestamp;pressure;altitude;pressure_sealevel;temperature;humidity
18790;BME280;9523;42.650;23.386;2022-09-09T00:02:27;94839.34;;;18.35;100.00
18790;BME280;9523;42.650;23.386;2022-09-09T00:04:59;94834.88;;;18.26;100.00
18790;BME280;9523;42.650;23.386;2022-09-09T00:07:36;94829.97;;;18.28;100.00
18790;BME280;9523;42.650;23.386;2022-09-09T00:10:16;94832.53;;;18.25;100.00
18790;BME280;9523;42.650;23.386;2022-09-09T00:12:50;94833.50;;;18.20;100.00
18790;BME280;9523;42.650;23.386;2022-09-09T00:15:22;94839.97;;;18.19;100.00
18790;BME280;9523;42.650;23.386;2022-09-09T00:17:56;94839.53;;;18.17;100.00
18790;BME280;9523;42.650;23.386;2022-09-09T00:20:30;94808.31;;;17.97;100.00
18790;BME280;9523;42.650;23.386;2022-09-09T00:23:04;94824.56;;;18.04;100.00
18790;BME280;9523;42.650;23.386;2022-09-09T00:25:41;94823.78;;;18.04;100.00
18790;BME280;9523;42.650;23.386;2022-09-09T00:28:13;94823.47;;;18.05;100.00
18790;BME280;9523;42.650;23.386;2022-09-09T00:30:42;94821.47;;;18.02;100.00
18790;BME280;9523;42.650;23.386;2022-09-09T00:33:12;94799.59;;;17.88;100.00
18790;BME280;9523;42.650;23.386;2022-09-09T00:35:44;94813.22;;;17.95;100.00
18790;BME280;9523;42.650;23.386;2022-09-09T00:38:14;94811.41;;;17.87;100.00
18790;BME280;9523;42.650;23.386;2022-09-09T00:40:46;94807.69;;;17.79;100.00
18790;BME280;9523;42.650;23.386;2022-09-09T00:43:26;94804.56;;;17.57;100.00
18790;BME280;9523;42.650;23.386;2022-09-09T00:46:23;94791.88;;;17.54;100.00
18790;BME280;9523;42.650;23.386;2022-09-09T00:49:00;94785.16;;;17.48;100.00
18790;BME280;9523;42.650;23.386;2022-09-09T00:51:36;94792.28;;;17.44;100.00
18790;BME280;9523;42.650;23.386;2022-09-09T00:54:28;94792.59;;;17.42;100.00
18790;BME280;9523;42.650;23.386;2022-09-09T00:57:07;94790.78;;;17.34;100.00
18790;BME280;9523;42.650;23.386;2022-09-09T00:59:46;94793.63;;;17.29;100.00
18790;BME280;9523;42.650;23.386;2022-09-09T01:02:19;94781.56;;;17.31;100.00
18790;BME280;9523;42.650;23.386;2022-09-09T01:04:49;94786.59;;;17.24;100.00
18790;BME280;9523;42.650;23.386;2022-09-09T01:07:17;94782.84;;;17.25;100.00
18790;BME280;9523;42.650;23.386;2022-09-09T01:09:56;94786.16;;;17.22;100.00
18790;BME280;9523;42.650;23.386;2022-09-09T01:12:31;94791.16;;;17.24;100.00
18790;BME280;9523;42.650;23.386;2022-09-09T01:15:08;94798.19;;;17.28;100.00
18790;BME280;9523;42.650;23.386;2022-09-09T01:17:49;94785.97;;;17.27;100.00
18790;BME280;9523;42.650;23.386;2022-09-09T01:20:20;94796.25;;;17.37;100.00
18790;BME280;9523;42.650;23.386;2022-09-09T01:23:02;94795.97;;;17.30;100.00
18790;BME280;9523;42.650;23.386;2022-09-09T01:26:17;94801.63;;;17.29;100.00
18790;BME280;9523;42.650;23.386;2022-09-09T01:28:46;94767.25;;;17.15;100.00
18790;BME280;9523;42.650;23.386;2022-09-09T01:31:17;94795.19;;;17.30;100.00
18790;BME280;9523;42.650;23.386;2022-09-09T01:33:46;94789.09;;;17.29;100.00
18790;BME280;9523;42.650;23.386;2022-09-09T01:36:21;94788.94;;;17.26;100.00
18790;BME280;9523;42.650;23.386;2022-09-09T01:38:51;94793.97;;;17.27;100.00
18790;BME280;9523;42.650;23.386;2022-09-09T01:41:20;94804.03;;;17.22;100.00
18790;BME280;9523;42.650;23.386;2022-09-09T01:43:47;94816.16;;;17.19;100.00
18790;BME280;9523;42.650;23.386;2022-09-09T01:46:15;94812.81;;;17.22;100.00
18790;BME280;9523;42.650;23.386;2022-09-09T01:48:43;94809.38;;;17.22;100.00
18790;BME280;9523;42.650;23.386;2022-09-09T01:51:10;94770.47;;;17.00;100.00
18790;BME280;9523;42.650;23.386;2022-09-09T01:53:38;94812.91;;;17.34;100.00
18790;BME280;9523;42.650;23.386;2022-09-09T01:56:13;94815.38;;;17.40;100.00
18790;BME280;9523;42.650;23.386;2022-09-09T01:59:01;94826.88;;;17.31;100.00
18790;BME280;9523;42.650;23.386;2022-09-09T02:01:39;94820.44;;;17.32;100.00
18790;BME280;9523;42.650;23.386;2022-09-09T02:04:13;94812.06;;;17.43;100.00
18790;BME280;9523;42.650;23.386;2022-09-09T02:06:45;94815.50;;;17.43;100.00
18790;BME280;9523;42.650;23.386;2022-09-09T02:09:17;94820.19;;;17.46;100.00
18790;BME280;9523;42.650;23.386;2022-09-09T02:11:49;94811.53;;;17.49;100.00
18790;BME280;9523;42.650;23.386;2022-09-09T02:14:25;94818.81;;;17.40;100.00
18790;BME280;9523;42.650;23.386;2022-09-09T02:16:56;94812.91;;;17.34;100.00
18790;BME280;9523;42.650;23.386;2022-09-09T02:19:29;94801.38;;;17.22;100.00
18790;BME280;9523;42.650;23.386;2022-09-09T02:21:59;94802.81;;;17.19;100.00
18790;BME280;9523;42.650;23.386;2022-09-09T02:24:28;94797.31;;;17.16;100.00
18790;BME280;9523;42.650;23.386;2022-09-09T02:27:00;94787.00;;;17.14;100.00
18790;BME280;9523;42.650;23.386;2022-09-09T02:29:32;94793.28;;;17.10;100.00
18790;BME280;9523;42.650;23.386;2022-09-09T02:32:02;94781.13;;;17.00;100.00
18790;BME280;9523;42.650;23.386;2022-09-09T02:34:34;94795.84;;;17.06;100.00
18790;BME280;9523;42.650;23.386;2022-09-09T02:37:03;94803.03;;;17.06;100.00
18790;BME280;9523;42.650;23.386;2022-09-09T02:39:33;94797.59;;;17.02;100.00
18790;BME280;9523;42.650;23.386;2022-09-09T02:41:59;94811.44;;;16.96;100.00
18790;BME280;9523;42.650;23.386;2022-09-09T02:44:30;94809.06;;;16.94;100.00
18790;BME280;9523;42.650;23.386;2022-09-09T02:47:25;94809.69;;;17.00;100.00
18790;BME280;9523;42.650;23.386;2022-09-09T02:50:02;94809.22;;;16.98;100.00
18790;BME280;9523;42.650;23.386;2022-09-09T02:52:38;94826.91;;;17.02;100.00
18790;BME280;9523;42.650;23.386;2022-09-09T02:55:12;94826.44;;;17.00;100.00
18790;BME280;9523;42.650;23.386;2022-09-09T02:57:45;94815.16;;;17.03;100.00
18790;BME280;9523;42.650;23.386;2022-09-09T03:00:15;94813.19;;;16.92;100.00
18790;BME280;9523;42.650;23.386;2022-09-09T03:02:42;94815.31;;;16.98;100.00
18790;BME280;9523;42.650;23.386;2022-09-09T03:05:10;94817.19;;;16.98;100.00
18790;BME280;9523;42.650;23.386;2022-09-09T03:07:38;94820.66;;;16.98;100.00
18790;BME280;9523;42.650;23.386;2022-09-09T03:10:06;94821.38;;;16.78;100.00
18790;BME280;9523;42.650;23.386;2022-09-09T03:12:33;94820.09;;;16.84;100.00
18790;BME280;9523;42.650;23.386;2022-09-09T03:15:00;94825.97;;;16.98;100.00
18790;BME280;9523;42.650;23.386;2022-09-09T03:17:29;94820.66;;;16.98;100.00
18790;BME280;9523;42.650;23.386;2022-09-09T03:19:55;94804.88;;;16.84;100.00
18790;BME280;9523;42.650;23.386;2022-09-09T03:22:26;94820.84;;;16.93;100.00
18790;BME280;9523;42.650;23.386;2022-09-09T03:24:53;94821.94;;;16.92;100.00
18790;BME280;9523;42.650;23.386;2022-09-09T03:27:26;94819.25;;;16.92;100.00
18790;BME280;9523;42.650;23.386;2022-09-09T03:29:53;94826.72;;;16.78;100.00
18790;BME280;9523;42.650;23.386;2022-09-09T03:32:21;94812.44;;;16.82;100.00
18790;BME280;9523;42.650;23.386;2022-09-09T03:34:52;94826.25;;;16.76;100.00
18790;BME280;9523;42.650;23.386;2022-09-09T03:37:21;94824.72;;;16.66;100.00
18790;BME280;9523;42.650;23.386;2022-09-09T03:39:48;94827.13;;;16.59;100.00
18790;BME280;9523;42.650;23.386;2022-09-09T03:42:16;94823.19;;;16.57;100.00
18790;BME280;9523;42.650;23.386;2022-09-09T03:44:44;94830.38;;;16.65;100.00
18790;BME280;9523;42.650;23.386;2022-09-09T03:47:12;94823.34;;;16.60;100.00
18790;BME280;9523;42.650;23.386;2022-09-09T03:49:39;94829.75;;;16.68;100.00
18790;BME280;9523;42.650;23.386;2022-09-09T03:52:08;94829.56;;;16.73;100.00
18790;BME280;9523;42.650;23.386;2022-09-09T03:54:35;94828.16;;;16.75;100.00
18790;BME280;9523;42.650;23.386;2022-09-09T03:57:02;94830.16;;;16.78;100.00
18790;BME280;9523;42.650;23.386;2022-09-09T03:59:32;94833.00;;;16.73;100.00
18790;BME280;9523;42.650;23.386;2022-09-09T04:02:00;94834.41;;;16.79;100.00
18790;BME280;9523;42.650;23.386;2022-09-09T04:04:27;94841.78;;;16.74;100.00
18790;BME280;9523;42.650;23.386;2022-09-09T04:06:54;94840.06;;;16.69;100.00
18790;BME280;9523;42.650;23.386;2022-09-09T04:09:23;94846.16;;;16.78;100.00
18790;BME280;9523;42.650;23.386;2022-09-09T04:11:50;94844.53;;;16.86;100.00
18790;BME280;9523;42.650;23.386;2022-09-09T04:14:17;94834.81;;;16.90;100.00
18790;BME280;9523;42.650;23.386;2022-09-09T04:16:43;94843.25;;;16.92;100.00
18790;BME280;9523;42.650;23.386;2022-09-09T04:19:13;94836.94;;;16.97;100.00
18790;BME280;9523;42.650;23.386;2022-09-09T04:21:41;94833.81;;;17.03;100.00
18790;BME280;9523;42.650;23.386;2022-09-09T04:24:08;94828.34;;;17.00;100.00
18790;BME280;9523;42.650;23.386;2022-09-09T04:26:37;94839.28;;;17.07;100.00
18790;BME280;9523;42.650;23.386;2022-09-09T04:29:04;94819.22;;;17.01;100.00
18790;BME280;9523;42.650;23.386;2022-09-09T04:31:33;94829.75;;;16.97;100.00
18790;BME280;9523;42.650;23.386;2022-09-09T04:34:00;94828.69;;;16.89;100.00
18790;BME280;9523;42.650;23.386;2022-09-09T04:36:31;94829.69;;;16.76;100.00
18790;BME280;9523;42.650;23.386;2022-09-09T04:38:58;94806.91;;;16.58;100.00
18790;BME280;9523;42.650;23.386;2022-09-09T04:41:26;94833.28;;;16.80;100.00
18790;BME280;9523;42.650;23.386;2022-09-09T04:43:58;94842.97;;;16.85;100.00
18790;BME280;9523;42.650;23.386;2022-09-09T04:46:26;94844.38;;;16.91;100.00
18790;BME280;9523;42.650;23.386;2022-09-09T04:48:55;94845.97;;;16.83;100.00
18790;BME280;9523;42.650;23.386;2022-09-09T04:51:22;94846.66;;;16.72;100.00
18790;BME280;9523;42.650;23.386;2022-09-09T04:53:49;94832.19;;;16.81;100.00
18790;BME280;9523;42.650;23.386;2022-09-09T04:56:20;94830.13;;;16.87;100.00
18790;BME280;9523;42.650;23.386;2022-09-09T04:58:50;94818.69;;;16.86;100.00
18790;BME280;9523;42.650;23.386;2022-09-09T05:01:20;94817.59;;;16.87;100.00
18790;BME280;9523;42.650;23.386;2022-09-09T05:03:48;94818.16;;;16.93;100.00
18790;BME280;9523;42.650;23.386;2022-09-09T05:06:17;94823.50;;;16.93;100.00
18790;BME280;9523;42.650;23.386;2022-09-09T05:08:45;94819.66;;;16.82;100.00
18790;BME280;9523;42.650;23.386;2022-09-09T05:11:14;94812.84;;;16.93;100.00
18790;BME280;9523;42.650;23.386;2022-09-09T05:13:42;94809.06;;;16.94;100.00
18790;BME280;9523;42.650;23.386;2022-09-09T05:16:10;94803.09;;;16.97;100.00
18790;BME280;9523;42.650;23.386;2022-09-09T05:18:38;94803.22;;;17.01;100.00
18790;BME280;9523;42.650;23.386;2022-09-09T05:21:06;94815.47;;;17.02;100.00
18790;BME280;9523;42.650;23.386;2022-09-09T05:23:33;94817.81;;;17.03;100.00
18790;BME280;9523;42.650;23.386;2022-09-09T05:26:01;94811.03;;;17.06;100.00
18790;BME280;9523;42.650;23.386;2022-09-09T05:28:30;94801.28;;;17.10;100.00
18790;BME280;9523;42.650;23.386;2022-09-09T05:30:59;94785.09;;;16.94;100.00
18790;BME280;9523;42.650;23.386;2022-09-09T05:33:27;94804.16;;;17.25;100.00
18790;BME280;9523;42.650;23.386;2022-09-09T05:36:04;94802.03;;;17.40;100.00
18790;BME280;9523;42.650;23.386;2022-09-09T05:38:34;94805.09;;;17.50;100.00
18790;BME280;9523;42.650;23.386;2022-09-09T05:41:02;94798.97;;;17.50;100.00
18790;BME280;9523;42.650;23.386;2022-09-09T05:43:29;94801.06;;;17.65;100.00
18790;BME280;9523;42.650;23.386;2022-09-09T05:46:02;94812.03;;;17.84;100.00
18790;BME280;9523;42.650;23.386;2022-09-09T05:48:30;94812.16;;;17.88;100.00
18790;BME280;9523;42.650;23.386;2022-09-09T05:50:57;94817.41;;;17.96;100.00
18790;BME280;9523;42.650;23.386;2022-09-09T05:53:29;94827.00;;;17.97;100.00
18790;BME280;9523;42.650;23.386;2022-09-09T05:56:01;94813.78;;;18.01;100.00
18790;BME280;9523;42.650;23.386;2022-09-09T05:58:29;94807.25;;;18.10;100.00
18790;BME280;9523;42.650;23.386;2022-09-09T06:01:01;94811.00;;;18.09;100.00
18790;BME280;9523;42.650;23.386;2022-09-09T06:03:33;94814.31;;;18.27;100.00
18790;BME280;9523;42.650;23.386;2022-09-09T06:06:06;94808.06;;;18.23;100.00
18790;BME280;9523;42.650;23.386;2022-09-09T06:08:35;94828.13;;;18.41;100.00
18790;BME280;9523;42.650;23.386;2022-09-09T06:11:05;94831.16;;;18.52;100.00
18790;BME280;9523;42.650;23.386;2022-09-09T06:13:38;94840.97;;;18.60;100.00
18790;BME280;9523;42.650;23.386;2022-09-09T06:16:09;94839.44;;;18.59;100.00
18790;BME280;9523;42.650;23.386;2022-09-09T06:18:42;94832.06;;;18.68;100.00
18790;BME280;9523;42.650;23.386;2022-09-09T06:21:17;94825.41;;;18.74;100.00
18790;BME280;9523;42.650;23.386;2022-09-09T06:23:46;94822.38;;;18.88;100.00
18790;BME280;9523;42.650;23.386;2022-09-09T06:26:16;94826.31;;;18.90;100.00
18790;BME280;9523;42.650;23.386;2022-09-09T06:28:47;94838.00;;;18.98;100.00
18790;BME280;9523;42.650;23.386;2022-09-09T06:31:16;94823.75;;;18.94;100.00
18790;BME280;9523;42.650;23.386;2022-09-09T06:33:51;94826.19;;;18.99;100.00
18790;BME280;9523;42.650;23.386;2022-09-09T06:36:21;94813.03;;;18.94;100.00
18790;BME280;9523;42.650;23.386;2022-09-09T06:38:50;94797.69;;;18.91;100.00
18790;BME280;9523;42.650;23.386;2022-09-09T06:41:20;94822.16;;;19.17;100.00
18790;BME280;9523;42.650;23.386;2022-09-09T06:43:49;94812.13;;;19.14;100.00
18790;BME280;9523;42.650;23.386;2022-09-09T06:46:18;94809.00;;;19.24;100.00
18790;BME280;9523;42.650;23.386;2022-09-09T06:48:47;94806.88;;;19.30;100.00
18790;BME280;9523;42.650;23.386;2022-09-09T06:51:16;94817.22;;;19.31;100.00
18790;BME280;9523;42.650;23.386;2022-09-09T06:53:44;94818.00;;;19.32;100.00
18790;BME280;9523;42.650;23.386;2022-09-09T06:56:21;94828.03;;;19.47;100.00
18790;BME280;9523;42.650;23.386;2022-09-09T06:58:49;94836.50;;;19.61;100.00
18790;BME280;9523;42.650;23.386;2022-09-09T07:01:18;94831.81;;;19.58;100.00
18790;BME280;9523;42.650;23.386;2022-09-09T07:03:55;94829.34;;;19.65;100.00
18790;BME280;9523;42.650;23.386;2022-09-09T07:06:26;94831.75;;;19.82;100.00
18790;BME280;9523;42.650;23.386;2022-09-09T07:08:57;94811.25;;;19.74;99.50
18790;BME280;9523;42.650;23.386;2022-09-09T07:11:28;94843.03;;;20.03;98.87
18790;BME280;9523;42.650;23.386;2022-09-09T07:13:56;94826.25;;;20.06;97.18
18790;BME280;9523;42.650;23.386;2022-09-09T07:16:24;94834.38;;;20.22;94.22
18790;BME280;9523;42.650;23.386;2022-09-09T07:18:55;94822.66;;;20.14;92.34
18790;BME280;9523;42.650;23.386;2022-09-09T07:21:26;94821.84;;;20.26;92.15
18790;BME280;9523;42.650;23.386;2022-09-09T07:23:54;94838.63;;;20.39;92.19
18790;BME280;9523;42.650;23.386;2022-09-09T07:26:23;94837.38;;;20.48;88.72
18790;BME280;9523;42.650;23.386;2022-09-09T07:28:52;94814.03;;;20.49;87.66
18790;BME280;9523;42.650;23.386;2022-09-09T07:31:21;94827.19;;;20.54;85.03
18790;BME280;9523;42.650;23.386;2022-09-09T07:33:48;94825.28;;;20.70;85.44
18790;BME280;9523;42.650;23.386;2022-09-09T07:36:21;94818.84;;;20.90;83.21
18790;BME280;9523;42.650;23.386;2022-09-09T07:39:06;94813.69;;;20.97;81.04
18790;BME280;9523;42.650;23.386;2022-09-09T07:41:41;94817.56;;;21.16;79.77
18790;BME280;9523;42.650;23.386;2022-09-09T07:44:11;94809.25;;;21.21;78.31
18790;BME280;9523;42.650;23.386;2022-09-09T07:46:39;94825.72;;;21.38;77.54
18790;BME280;9523;42.650;23.386;2022-09-09T07:49:07;94831.56;;;21.60;77.31
18790;BME280;9523;42.650;23.386;2022-09-09T07:51:38;94825.00;;;21.57;76.26
18790;BME280;9523;42.650;23.386;2022-09-09T07:54:07;94829.81;;;21.86;75.02
18790;BME280;9523;42.650;23.386;2022-09-09T07:56:38;94792.13;;;21.83;74.43
18790;BME280;9523;42.650;23.386;2022-09-09T07:59:06;94813.38;;;22.30;71.86
18790;BME280;9523;42.650;23.386;2022-09-09T08:02:01;94806.50;;;22.52;69.00
18790;BME280;9523;42.650;23.386;2022-09-09T08:04:28;94809.66;;;23.03;67.67
18790;BME280;9523;42.650;23.386;2022-09-09T08:06:57;94827.16;;;23.42;65.64
18790;BME280;9523;42.650;23.386;2022-09-09T08:09:25;94819.22;;;23.79;63.02
18790;BME280;9523;42.650;23.386;2022-09-09T08:11:54;94820.31;;;24.08;60.48
18790;BME280;9523;42.650;23.386;2022-09-09T08:14:22;94824.47;;;24.31;59.21
18790;BME280;9523;42.650;23.386;2022-09-09T08:16:50;94831.31;;;24.62;56.78
18790;BME280;9523;42.650;23.386;2022-09-09T08:19:21;94816.34;;;24.28;54.41
18790;BME280;9523;42.650;23.386;2022-09-09T08:21:51;94826.31;;;24.64;55.17
18790;BME280;9523;42.650;23.386;2022-09-09T08:24:19;94826.63;;;24.96;56.87
18790;BME280;9523;42.650;23.386;2022-09-09T08:26:48;94816.06;;;25.28;54.93
18790;BME280;9523;42.650;23.386;2022-09-09T08:31:58;94824.00;;;25.58;51.45
18790;BME280;9523;42.650;23.386;2022-09-09T08:34:26;94813.63;;;25.67;51.56
18790;BME280;9523;42.650;23.386;2022-09-09T08:36:54;94811.44;;;25.97;49.82
18790;BME280;9523;42.650;23.386;2022-09-09T08:39:21;94817.69;;;26.15;50.50
18790;BME280;9523;42.650;23.386;2022-09-09T08:42:06;94816.66;;;26.55;50.17
18790;BME280;9523;42.650;23.386;2022-09-09T08:44:48;94809.72;;;26.58;48.99
18790;BME280;9523;42.650;23.386;2022-09-09T08:47:27;94818.66;;;26.87;49.45
18790;BME280;9523;42.650;23.386;2022-09-09T08:50:05;94815.97;;;26.90;47.72
18790;BME280;9523;42.650;23.386;2022-09-09T08:52:38;94811.25;;;26.80;49.17
18790;BME280;9523;42.650;23.386;2022-09-09T08:55:17;94802.75;;;26.53;47.86
18790;BME280;9523;42.650;23.386;2022-09-09T08:57:51;94808.53;;;26.55;47.80
18790;BME280;9523;42.650;23.386;2022-09-09T09:00:20;94794.97;;;26.34;47.78
18790;BME280;9523;42.650;23.386;2022-09-09T09:02:54;94798.91;;;26.83;47.51
18790;BME280;9523;42.650;23.386;2022-09-09T09:05:32;94798.91;;;27.29;48.27
18790;BME280;9523;42.650;23.386;2022-09-09T09:08:10;94801.22;;;27.37;44.51
18790;BME280;9523;42.650;23.386;2022-09-09T09:10:46;94802.97;;;28.04;43.34
18790;BME280;9523;42.650;23.386;2022-09-09T09:13:17;94803.16;;;28.48;43.87
18790;BME280;9523;42.650;23.386;2022-09-09T09:15:49;94788.94;;;28.89;44.00
18790;BME280;9523;42.650;23.386;2022-09-09T09:18:18;94797.63;;;29.14;41.29
18790;BME280;9523;42.650;23.386;2022-09-09T09:21:00;94790.56;;;29.68;41.41
18790;BME280;9523;42.650;23.386;2022-09-09T09:23:39;94798.13;;;29.88;40.03
18790;BME280;9523;42.650;23.386;2022-09-09T09:26:10;94793.50;;;28.99;40.30
18790;BME280;9523;42.650;23.386;2022-09-09T09:28:42;94787.41;;;28.88;40.24
18790;BME280;9523;42.650;23.386;2022-09-09T09:31:10;94784.34;;;28.79;40.78
18790;BME280;9523;42.650;23.386;2022-09-09T09:33:45;94796.06;;;28.69;41.37
18790;BME280;9523;42.650;23.386;2022-09-09T09:36:15;94806.88;;;27.96;42.46
18790;BME280;9523;42.650;23.386;2022-09-09T09:38:53;94803.16;;;27.47;43.33
18790;BME280;9523;42.650;23.386;2022-09-09T09:41:32;94775.28;;;27.50;43.99
18790;BME280;9523;42.650;23.386;2022-09-09T09:44:01;94786.84;;;27.65;42.80
18790;BME280;9523;42.650;23.386;2022-09-09T09:46:28;94782.47;;;27.96;42.49
18790;BME280;9523;42.650;23.386;2022-09-09T09:49:00;94780.72;;;28.41;42.96
18790;BME280;9523;42.650;23.386;2022-09-09T09:51:30;94775.44;;;28.82;42.56
18790;BME280;9523;42.650;23.386;2022-09-09T09:54:13;94774.13;;;28.97;40.84
18790;BME280;9523;42.650;23.386;2022-09-09T09:56:42;94768.78;;;28.90;41.12
18790;BME280;9523;42.650;23.386;2022-09-09T09:59:23;94731.94;;;28.85;41.01
18790;BME280;9523;42.650;23.386;2022-09-09T10:02:13;94745.09;;;28.87;42.31
18790;BME280;9523;42.650;23.386;2022-09-09T10:04:43;94757.25;;;29.20;41.24
18790;BME280;9523;42.650;23.386;2022-09-09T10:07:15;94767.22;;;28.89;39.95
18790;BME280;9523;42.650;23.386;2022-09-09T10:09:43;94755.25;;;29.24;39.49
18790;BME280;9523;42.650;23.386;2022-09-09T10:12:18;94766.81;;;28.90;40.53
18790;BME280;9523;42.650;23.386;2022-09-09T10:14:57;94780.00;;;28.92;41.24
18790;BME280;9523;42.650;23.386;2022-09-09T10:17:36;94774.81;;;28.57;41.53
18790;BME280;9523;42.650;23.386;2022-09-09T10:20:19;94771.38;;;28.45;42.06
18790;BME280;9523;42.650;23.386;2022-09-09T10:23:00;94776.94;;;28.24;42.84
18790;BME280;9523;42.650;23.386;2022-09-09T10:25:38;94780.56;;;27.89;43.93
18790;BME280;9523;42.650;23.386;2022-09-09T10:28:28;94784.94;;;27.62;45.23
18790;BME280;9523;42.650;23.386;2022-09-09T10:31:08;94771.03;;;27.28;44.59
18790;BME280;9523;42.650;23.386;2022-09-09T10:33:46;94782.63;;;27.39;45.36
18790;BME280;9523;42.650;23.386;2022-09-09T10:36:19;94786.91;;;27.33;45.09
18790;BME280;9523;42.650;23.386;2022-09-09T10:38:52;94781.91;;;27.03;45.27
18790;BME280;9523;42.650;23.386;2022-09-09T10:41:34;94780.00;;;26.90;45.51
18790;BME280;9523;42.650;23.386;2022-09-09T10:44:15;94788.09;;;26.90;46.48
18790;BME280;9523;42.650;23.386;2022-09-09T10:46:55;94783.81;;;26.82;46.94
18790;BME280;9523;42.650;23.386;2022-09-09T10:49:41;94784.19;;;26.77;47.61
18790;BME280;9523;42.650;23.386;2022-09-09T10:52:18;94785.34;;;26.69;48.44
18790;BME280;9523;42.650;23.386;2022-09-09T10:54:56;94787.28;;;26.57;48.50
18790;BME280;9523;42.650;23.386;2022-09-09T10:57:29;94787.66;;;26.45;49.12
18790;BME280;9523;42.650;23.386;2022-09-09T11:00:03;94784.16;;;26.41;48.91
18790;BME280;9523;42.650;23.386;2022-09-09T11:02:32;94784.56;;;26.50;49.00
18790;BME280;9523;42.650;23.386;2022-09-09T11:05:05;94782.66;;;26.47;49.87
18790;BME280;9523;42.650;23.386;2022-09-09T11:07:42;94770.13;;;26.00;50.03
18790;BME280;9523;42.650;23.386;2022-09-09T11:10:18;94777.88;;;26.05;49.22
18790;BME280;9523;42.650;23.386;2022-09-09T11:12:51;94785.97;;;26.02;49.98
18790;BME280;9523;42.650;23.386;2022-09-09T11:15:23;94789.34;;;25.74;50.16
18790;BME280;9523;42.650;23.386;2022-09-09T11:17:55;94769.56;;;25.56;50.99
18790;BME280;9523;42.650;23.386;2022-09-09T11:20:23;94778.88;;;25.65;51.54
18790;BME280;9523;42.650;23.386;2022-09-09T11:22:54;94781.91;;;25.53;52.37
18790;BME280;9523;42.650;23.386;2022-09-09T11:25:29;94729.63;;;25.28;52.02
18790;BME280;9523;42.650;23.386;2022-09-09T11:28:14;94771.53;;;25.59;52.48
18790;BME280;9523;42.650;23.386;2022-09-09T11:30:54;94765.44;;;25.80;51.36
18790;BME280;9523;42.650;23.386;2022-09-09T11:33:41;94763.63;;;26.15;50.07
18790;BME280;9523;42.650;23.386;2022-09-09T11:36:28;94751.66;;;26.20;50.32
18790;BME280;9523;42.650;23.386;2022-09-09T11:39:09;94743.59;;;26.27;50.22
18790;BME280;9523;42.650;23.386;2022-09-09T11:41:47;94738.56;;;26.36;50.46
18790;BME280;9523;42.650;23.386;2022-09-09T11:44:19;94745.50;;;26.34;51.54
18790;BME280;9523;42.650;23.386;2022-09-09T11:46:53;94735.47;;;26.34;50.94
18790;BME280;9523;42.650;23.386;2022-09-09T11:49:28;94732.69;;;26.13;51.15
18790;BME280;9523;42.650;23.386;2022-09-09T11:51:56;94718.78;;;26.07;51.54
18790;BME280;9523;42.650;23.386;2022-09-09T11:54:29;94709.94;;;26.21;51.02
18790;BME280;9523;42.650;23.386;2022-09-09T11:56:59;94698.38;;;26.38;51.56
18790;BME280;9523;42.650;23.386;2022-09-09T11:59:27;94683.69;;;26.57;51.12
18790;BME280;9523;42.650;23.386;2022-09-09T12:01:57;94686.00;;;26.73;52.28
18790;BME280;9523;42.650;23.386;2022-09-09T12:04:47;94701.06;;;27.02;52.48
18790;BME280;9523;42.650;23.386;2022-09-09T12:07:30;94708.38;;;27.12;50.49
18790;BME280;9523;42.650;23.386;2022-09-09T12:09:59;94705.63;;;27.37;50.61
18790;BME280;9523;42.650;23.386;2022-09-09T12:12:31;94690.41;;;27.68;49.56
18790;BME280;9523;42.650;23.386;2022-09-09T12:15:17;94700.31;;;27.99;48.58
18790;BME280;9523;42.650;23.386;2022-09-09T12:17:47;94694.53;;;27.97;46.11
18790;BME280;9523;42.650;23.386;2022-09-09T12:20:18;94690.53;;;28.19;46.76
18790;BME280;9523;42.650;23.386;2022-09-09T12:25:44;94687.31;;;28.90;47.23
18790;BME280;9523;42.650;23.386;2022-09-09T12:28:18;94678.31;;;28.97;46.03
18790;BME280;9523;42.650;23.386;2022-09-09T12:30:51;94677.91;;;28.94;44.24
18790;BME280;9523;42.650;23.386;2022-09-09T12:33:21;94672.84;;;29.00;44.07
18790;BME280;9523;42.650;23.386;2022-09-09T12:35:53;94668.94;;;29.38;45.44
18790;BME280;9523;42.650;23.386;2022-09-09T12:38:29;94648.78;;;29.36;44.13
18790;BME280;9523;42.650;23.386;2022-09-09T12:40:58;94665.16;;;29.63;42.77
18790;BME280;9523;42.650;23.386;2022-09-09T12:43:28;94654.69;;;29.61;42.45
18790;BME280;9523;42.650;23.386;2022-09-09T12:45:57;94652.78;;;29.24;42.45
18790;BME280;9523;42.650;23.386;2022-09-09T12:48:30;94657.56;;;29.13;43.66
18790;BME280;9523;42.650;23.386;2022-09-09T12:50:59;94654.56;;;29.04;43.92
18790;BME280;9523;42.650;23.386;2022-09-09T12:53:28;94655.25;;;28.74;43.89
18790;BME280;9523;42.650;23.386;2022-09-09T12:55:59;94662.97;;;28.76;44.56
18790;BME280;9523;42.650;23.386;2022-09-09T12:58:29;94653.31;;;28.71;43.63
18790;BME280;9523;42.650;23.386;2022-09-09T13:00:59;94644.28;;;29.19;44.00
18790;BME280;9523;42.650;23.386;2022-09-09T13:03:31;94647.72;;;29.60;43.00
18790;BME280;9523;42.650;23.386;2022-09-09T13:06:10;94646.91;;;30.20;42.64
18790;BME280;9523;42.650;23.386;2022-09-09T13:08:41;94640.16;;;30.98;41.72
18790;BME280;9523;42.650;23.386;2022-09-09T13:11:20;94638.88;;;31.65;40.87
18790;BME280;9523;42.650;23.386;2022-09-09T13:13:55;94629.00;;;31.72;38.68
18790;BME280;9523;42.650;23.386;2022-09-09T13:16:25;94630.16;;;31.90;38.17
18790;BME280;9523;42.650;23.386;2022-09-09T13:18:57;94630.97;;;31.32;38.68
18790;BME280;9523;42.650;23.386;2022-09-09T13:21:32;94625.81;;;31.57;38.29
18790;BME280;9523;42.650;23.386;2022-09-09T13:24:00;94631.13;;;31.64;37.63
18790;BME280;9523;42.650;23.386;2022-09-09T13:26:29;94627.00;;;31.56;38.56
18790;BME280;9523;42.650;23.386;2022-09-09T13:29:16;94624.53;;;31.02;38.63